createdAt,value
2017-10-17T19:51:36.294Z,60.5
2017-10-17T19:52:35.469Z,60.3
2017-10-17T19:53:34.812Z,60.3
2017-10-17T19:54:34.170Z,60.3
2017-10-17T19:55:33.386Z,60.2
2017-10-17T19:56:32.217Z,60.3
2017-10-17T19:57:31.764Z,60.4
2017-10-17T19:58:31.135Z,60.2
2017-10-17T19:59:30.160Z,60.1
2017-10-17T20:00:29.652Z,59.8
2017-10-17T20:01:28.362Z,60.1
2017-10-17T20:02:27.708Z,60.3
2017-10-17T20:03:27.491Z,60.3
2017-10-17T20:04:26.028Z,60.3
2017-10-17T20:05:25.826Z,60.3
2017-10-17T20:06:24.640Z,60.4
2017-10-17T20:07:23.676Z,60.3
2017-10-17T20:08:23.212Z,60.4
2017-10-17T20:09:22.474Z,60.4
2017-10-17T20:10:21.276Z,60.4
2017-10-17T20:11:20.915Z,60.5
2017-10-17T20:12:20.391Z,60.4
2017-10-17T20:13:19.223Z,60.5
2017-10-17T20:14:18.114Z,60.5
2017-10-17T20:15:17.507Z,60.6
2017-10-17T20:16:16.610Z,60.6
2017-10-17T20:17:15.907Z,60.6
2017-10-17T20:18:15.442Z,60.6
2017-10-17T20:19:14.649Z,60.6
2017-10-17T20:20:13.520Z,60.6
2017-10-17T20:22:12.051Z,60.6
2017-10-17T20:23:11.511Z,60.6
2017-10-17T20:24:10.319Z,60.6
2017-10-17T20:25:09.956Z,60.4
2017-10-17T20:26:08.989Z,60.4
2017-10-17T20:27:08.332Z,60.6
2017-10-17T20:28:07.673Z,60.3
2017-10-17T20:29:06.307Z,59.7
2017-10-17T20:30:05.651Z,59.7
2017-10-17T20:31:05.138Z,59.5
2017-10-17T20:32:04.312Z,59.4
2017-10-17T20:33:03.342Z,59.4
2017-10-17T20:34:02.741Z,59.4
2017-10-17T20:35:02.323Z,59.6
2017-10-17T20:36:01.034Z,59.5
2017-10-17T20:37:00.267Z,59.4
2017-10-17T20:37:59.718Z,59.6
2017-10-17T20:38:58.947Z,59.7
2017-10-17T20:39:58.288Z,59.7
2017-10-17T20:40:57.286Z,59.7
2017-10-17T20:41:56.827Z,59.6
2017-10-17T20:42:55.584Z,59.6
2017-10-17T20:43:54.785Z,59.6
2017-10-17T20:44:53.902Z,59.6
2017-10-17T20:45:53.751Z,59.5
2017-10-17T20:46:52.713Z,59.6
2017-10-17T20:47:51.849Z,59.6
2017-10-17T20:48:50.565Z,59.6
2017-10-17T20:49:49.869Z,59.5
2017-10-17T20:50:49.044Z,59.6
2017-10-17T20:51:48.214Z,59.8
2017-10-17T20:52:47.478Z,59.8
2017-10-17T20:53:47.003Z,59.7
2017-10-17T20:54:46.053Z,60.3
2017-10-17T20:55:45.364Z,60
2017-10-17T20:56:44.511Z,60.1
2017-10-17T20:57:43.611Z,60
2017-10-17T20:59:42.142Z,60
2017-10-17T21:01:40.433Z,60.2
2017-10-17T21:02:39.863Z,60.2
2017-10-17T21:03:39.272Z,60.1
2017-10-17T21:04:38.658Z,60
2017-10-17T21:05:37.772Z,60
2017-10-17T21:06:36.940Z,60.2
2017-10-17T21:07:36.337Z,60
2017-10-17T21:08:34.791Z,60.1
2017-10-17T21:10:33.510Z,60
2017-10-17T21:11:32.905Z,60.1
2017-10-17T21:12:32.197Z,60.1
2017-10-17T21:13:31.325Z,60.2
2017-10-17T21:14:30.591Z,60.1
2017-10-17T21:15:29.728Z,60
2017-10-17T21:16:28.606Z,60.1
2017-10-17T21:17:28.058Z,60.3
2017-10-17T21:18:27.219Z,59.9
2017-10-17T21:19:26.542Z,60
2017-10-17T21:20:25.319Z,59.9
2017-10-17T21:21:25.031Z,60
2017-10-17T21:22:24.093Z,60.1
2017-10-17T21:23:23.001Z,60.1
2017-10-17T21:24:22.432Z,60.1
2017-10-17T21:25:21.582Z,60.1
2017-10-17T21:26:20.585Z,60
2017-10-17T21:27:19.936Z,60
2017-10-17T21:28:18.996Z,60.1
2017-10-17T21:29:18.079Z,60.1
2017-10-17T21:30:18.084Z,60
2017-10-17T21:31:16.834Z,60.1
2017-10-17T21:32:15.772Z,59.9
2017-10-17T21:33:15.142Z,60.1
2017-10-17T21:34:14.746Z,60
2017-10-17T21:35:13.392Z,60.1
2017-10-17T21:35:44.194Z,60.1
2017-10-17T21:36:14.755Z,60
2017-10-17T21:36:44.836Z,60
2017-10-17T21:37:15.541Z,60.1
2017-10-17T21:38:11.161Z,60.1
2017-10-17T21:39:10.499Z,59.8
2017-10-17T21:40:09.211Z,59.8
2017-10-17T21:41:08.817Z,60
2017-10-17T21:42:08.186Z,60
2017-10-17T21:43:07.188Z,60
2017-10-17T21:44:06.574Z,60
2017-10-17T21:47:03.699Z,59.8
2017-10-17T21:48:03.301Z,59.8
2017-10-17T21:49:02.223Z,59.8
2017-10-17T21:50:01.336Z,59.8
2017-10-17T21:51:00.734Z,59.8
2017-10-17T21:52:00.093Z,60.2
2017-10-17T21:52:58.947Z,60.2
2017-10-17T21:53:58.493Z,60.3
2017-10-17T21:54:57.771Z,60.2
2017-10-17T21:55:57.112Z,59.9
2017-10-17T21:56:55.854Z,60
2017-10-17T21:58:54.455Z,60
2017-10-17T21:59:53.492Z,59.9
2017-10-17T22:00:52.839Z,59.8
2017-10-17T22:01:52.149Z,59.8
2017-10-17T22:02:51.193Z,59.8
2017-10-17T22:03:50.535Z,59.9
2017-10-17T22:04:49.468Z,60
2017-10-17T22:05:48.805Z,59.6
2017-10-17T22:06:48.286Z,59.7
2017-10-17T22:07:47.384Z,59.7
2017-10-17T22:08:46.580Z,59.6
2017-10-17T22:09:45.407Z,59.7
2017-10-17T22:10:44.980Z,59.6
2017-10-17T22:11:44.309Z,59.6
2017-10-17T22:12:43.143Z,59.4
2017-10-17T22:13:42.479Z,59.5
2017-10-17T22:14:41.312Z,59.4
2017-10-17T22:15:40.787Z,59.5
2017-10-17T22:16:40.259Z,59.6
2017-10-17T22:17:38.956Z,59.5
2017-10-17T22:18:38.159Z,59.6
2017-10-17T22:19:37.357Z,59.7
2017-10-17T22:20:36.957Z,59.8
2017-10-17T22:21:35.781Z,59.9
2017-10-17T22:22:35.617Z,60
2017-10-17T22:23:34.733Z,60.1
2017-10-17T22:24:33.843Z,60.1
2017-10-17T22:25:32.806Z,60.2
2017-10-17T22:26:32.268Z,60.1
2017-10-17T22:27:31.548Z,60.1
2017-10-17T22:28:30.387Z,60.1
2017-10-17T22:29:29.738Z,60.1
2017-10-17T22:30:28.822Z,60.2
2017-10-17T22:31:28.163Z,60.1
2017-10-17T22:32:27.060Z,60.1
2017-10-17T22:33:26.132Z,60.1
2017-10-17T22:34:25.721Z,60.2
2017-10-17T22:35:25.066Z,60.2
2017-10-17T22:36:24.266Z,60.2
2017-10-17T22:37:23.368Z,60.3
2017-10-17T22:38:22.565Z,60.3
2017-10-17T22:39:22.032Z,60.3
2017-10-17T22:40:20.890Z,60.4
2017-10-17T22:41:19.975Z,60.3
2017-10-17T22:42:19.326Z,60.3
2017-10-17T22:43:18.161Z,60.3
2017-10-17T22:44:17.999Z,60.4
2017-10-17T22:45:16.696Z,60.5
2017-10-17T22:46:16.167Z,60.4
2017-10-17T22:48:14.263Z,60.5
2017-10-17T22:49:13.333Z,60.5
2017-10-17T22:50:13.029Z,60.5
2017-10-17T22:51:12.254Z,60.5
2017-10-17T22:52:11.461Z,60.5
2017-10-17T22:53:10.789Z,60.5
2017-10-17T22:54:09.486Z,60.5
2017-10-17T22:55:09.061Z,60.5
2017-10-17T22:56:08.156Z,60.4
2017-10-17T22:57:07.354Z,60.5
2017-10-17T22:58:06.431Z,60.5
2017-10-17T22:59:06.032Z,60.5
2017-10-17T23:00:05.006Z,60.5
2017-10-17T23:01:03.981Z,60.5
2017-10-17T23:02:03.061Z,60.5
2017-10-17T23:03:02.631Z,60.6
2017-10-17T23:04:01.742Z,60.6
2017-10-17T23:05:01.209Z,60.6
2017-10-17T23:06:00.416Z,60.7
2017-10-17T23:06:59.516Z,60.7
2017-10-17T23:07:58.479Z,60.7
2017-10-17T23:08:57.692Z,60.7
2017-10-17T23:09:57.045Z,60.7
2017-10-17T23:10:56.386Z,60.7
2017-10-17T23:11:55.076Z,60.7
2017-10-17T23:12:54.647Z,60.8
2017-10-17T23:13:53.847Z,60.7
2017-10-17T23:14:53.313Z,60.7
2017-10-17T23:15:52.140Z,60.7
2017-10-17T23:16:51.338Z,60.7
2017-10-17T23:17:50.533Z,60.7
2017-10-17T23:18:49.870Z,60.7
2017-10-17T23:19:49.090Z,60.7
2017-10-17T23:20:48.290Z,60.7
2017-10-17T23:21:47.370Z,60.7
2017-10-17T23:22:46.581Z,60.8
2017-10-17T23:23:45.779Z,60.8
2017-10-17T23:24:45.245Z,60.8
2017-10-17T23:25:44.366Z,60.8
2017-10-17T23:26:43.435Z,60.8
2017-10-17T23:27:42.505Z,60.7
2017-10-17T23:28:42.344Z,60.6
2017-10-17T23:29:41.051Z,60.7
2017-10-17T23:30:40.398Z,60.6
2017-10-17T23:31:39.463Z,60.6
2017-10-17T23:32:39.067Z,60.6
2017-10-17T23:34:37.277Z,60.7
2017-10-17T23:35:36.257Z,60.6
2017-10-17T23:36:35.594Z,60.6
2017-10-17T23:37:34.799Z,60.7
2017-10-17T23:38:34.000Z,60.7
2017-10-17T23:39:33.467Z,60.8
2017-10-17T23:40:32.294Z,60.8
2017-10-17T23:42:30.882Z,60.8
2017-10-17T23:43:30.214Z,60.8
2017-10-17T23:44:29.183Z,60.8
2017-10-17T23:45:28.258Z,60.8
2017-10-17T23:46:27.593Z,60.7
2017-10-17T23:47:26.949Z,60.8
2017-10-17T23:48:26.015Z,60.8
2017-10-17T23:49:25.231Z,60.8
2017-10-17T23:50:24.439Z,60.9
2017-10-17T23:51:23.793Z,60.9
2017-10-17T23:52:23.105Z,60.8
2017-10-17T23:53:21.807Z,60.8
2017-10-17T23:54:21.378Z,60.8
2017-10-17T23:55:20.719Z,60.9
2017-10-17T23:56:19.811Z,60.8
2017-10-17T23:57:19.139Z,60.8
2017-10-17T23:58:17.982Z,60.8
